Time;durP1;ratioP1;P1;durP2;ratioP2;P2;SDS_P1;SDS_P2;PMS_P1;PMS_P2;Temp;Humidity;BMP_temperature;BMP_pressure;BME280_temperature;BME280_humidity;BME280_pressure;Samples;Min_cycle;Max_cycle;Signal;HPM_P1;HPM_P2
2023/07/01 00:01:32;;;;;;;4.55;0.63;;;18.70;99.90;;;;;;5026888;28;20033;-72
2023/07/01 00:03:57;;;;;;;1.98;0.80;;;18.60;99.90;;;;;;5009900;28;20029;-71
2023/07/01 00:06:23;;;;;;;2.35;0.80;;;18.70;99.90;;;;;;5026781;28;20041;-71
2023/07/01 00:08:49;;;;;;;3.22;0.93;;;18.60;99.90;;;;;;5027099;28;20103;-71
2023/07/01 00:11:14;;;;;;;6.60;0.80;;;18.50;99.90;;;;;;5010534;28;20030;-71
2023/07/01 00:13:40;;;;;;;3.17;0.77;;;18.60;99.90;;;;;;5027402;28;20064;-71
2023/07/01 00:16:05;;;;;;;4.10;0.82;;;18.50;99.90;;;;;;5027126;28;20456;-71
2023/07/01 00:18:31;;;;;;;3.05;0.88;;;18.40;99.90;;;;;;5011031;28;20046;-72
2023/07/01 00:20:57;;;;;;;4.07;0.75;;;18.40;99.90;;;;;;5030718;28;20030;-72
2023/07/01 00:23:22;;;;;;;2.90;1.10;;;18.40;99.90;;;;;;5012693;28;20041;-71
2023/07/01 00:25:48;;;;;;;2.78;0.57;;;18.20;99.90;;;;;;5030397;28;20047;-73
2023/07/01 00:28:14;;;;;;;3.00;0.68;;;18.30;99.90;;;;;;5030412;28;20052;-72
2023/07/01 00:30:39;;;;;;;6.68;1.08;;;18.20;99.90;;;;;;5030414;28;20409;-73
2023/07/01 00:33:05;;;;;;;4.05;1.17;;;18.30;99.90;;;;;;5030628;28;20041;-71
2023/07/01 00:35:32;;;;;;;5.32;0.98;;;18.10;99.90;;;;;;5012579;28;20029;-72
2023/07/01 00:37:58;;;;;;;2.85;0.80;;;18.10;99.90;;;;;;5030148;28;20683;-74
2023/07/01 00:40:23;;;;;;;2.53;1.10;;;18.00;99.90;;;;;;5029670;28;20112;-72
2023/07/01 00:42:49;;;;;;;6.45;1.20;;;17.90;99.90;;;;;;5003937;28;20042;-72
2023/07/01 00:45:14;;;;;;;6.55;1.63;;;17.80;99.90;;;;;;5030213;28;20041;-72
2023/07/01 00:47:40;;;;;;;3.65;1.30;;;17.80;99.90;;;;;;5011845;28;20486;-71
2023/07/01 00:50:10;;;;;;;5.15;1.40;;;17.80;99.90;;;;;;5012958;28;20029;-71
2023/07/01 00:52:37;;;;;;;4.13;1.50;;;17.70;99.90;;;;;;5029478;28;20044;-72
2023/07/01 00:55:03;;;;;;;5.20;1.20;;;17.70;99.90;;;;;;5030266;28;20272;-74
2023/07/01 00:57:29;;;;;;;5.68;1.42;;;17.70;99.90;;;;;;5029740;28;20036;-72
2023/07/01 00:59:55;;;;;;;6.32;1.77;;;17.70;99.90;;;;;;5012197;28;20029;-73
2023/07/01 01:02:29;;;;;;;9.27;1.63;;;17.80;99.90;;;;;;5011919;28;20037;-72
2023/07/01 01:05:10;;;;;;;5.63;1.23;;;17.80;99.90;;;;;;5012783;28;20079;-72
2023/07/01 01:08:10;;;;;;;4.95;1.77;;;17.80;99.90;;;;;;5029139;28;20108;-73
2023/07/01 01:10:39;;;;;;;2.00;0.82;;;17.80;99.90;;;;;;5004622;28;20029;-72
2023/07/01 01:13:06;;;;;;;4.32;1.25;;;17.80;99.90;;;;;;5014078;28;20075;-72
2023/07/01 01:15:32;;;;;;;6.97;1.08;;;17.90;99.90;;;;;;5041357;28;20030;-73
2023/07/01 01:18:04;;;;;;;4.20;1.02;;;17.90;99.90;;;;;;5011429;28;20596;-70
2023/07/01 01:20:33;;;;;;;5.97;1.48;;;17.90;99.90;;;;;;4992460;28;20399;-72
2023/07/01 01:23:13;;;;;;;4.30;0.98;;;17.80;99.90;;;;;;5008005;28;20045;-72
2023/07/01 01:25:52;;;;;;;4.78;1.92;;;17.90;99.90;;;;;;5009470;28;20397;-73
2023/07/01 01:28:18;;;;;;;4.75;0.93;;;17.90;99.90;;;;;;5029313;28;20033;-72
2023/07/01 01:30:43;;;;;;;8.00;1.00;;;17.90;99.90;;;;;;5011016;28;20504;-72
2023/07/01 01:33:09;;;;;;;3.30;1.25;;;17.90;99.90;;;;;;5029330;28;20104;-72
2023/07/01 01:35:34;;;;;;;2.22;0.77;;;17.90;99.90;;;;;;5010829;28;20037;-72
2023/07/01 01:38:19;;;;;;;4.85;1.05;;;17.90;99.90;;;;;;5029649;28;20064;-72
2023/07/01 01:41:04;;;;;;;3.63;1.88;;;17.90;99.90;;;;;;5028761;28;20042;-72
2023/07/01 01:43:44;;;;;;;4.43;0.98;;;17.90;99.90;;;;;;5009354;28;20367;-72
2023/07/01 01:46:11;;;;;;;4.40;1.05;;;17.90;99.90;;;;;;5028821;28;20037;-72
2023/07/01 01:48:38;;;;;;;6.40;1.42;;;17.80;99.90;;;;;;5010020;28;20057;-73
2023/07/01 01:51:04;;;;;;;4.13;1.02;;;17.80;99.90;;;;;;5011097;28;20033;-73
2023/07/01 01:53:32;;;;;;;4.82;1.30;;;17.80;99.90;;;;;;5010997;28;20044;-72
2023/07/01 01:55:59;;;;;;;2.80;1.02;;;17.80;99.90;;;;;;5029435;28;20076;-72
2023/07/01 01:58:24;;;;;;;7.95;1.00;;;17.80;99.90;;;;;;5024647;28;20517;-71
2023/07/01 02:00:50;;;;;;;4.68;1.30;;;17.80;99.90;;;;;;5011050;28;20038;-71
2023/07/01 02:03:16;;;;;;;6.18;1.50;;;17.80;99.90;;;;;;5011290;28;20030;-71
2023/07/01 02:05:41;;;;;;;2.38;0.93;;;17.80;99.90;;;;;;5015852;28;20042;-73
2023/07/01 02:08:08;;;;;;;9.07;2.03;;;17.80;99.90;;;;;;5011059;28;20040;-72
2023/07/01 02:10:33;;;;;;;3.10;1.38;;;17.70;99.90;;;;;;5027820;28;20052;-75
2023/07/01 02:12:59;;;;;;;6.00;1.27;;;17.70;99.90;;;;;;5029761;28;20390;-71
2023/07/01 02:15:24;;;;;;;5.07;1.17;;;17.70;99.90;;;;;;5010681;28;20112;-71
2023/07/01 02:17:50;;;;;;;2.63;1.17;;;17.70;99.90;;;;;;5028984;28;20037;-73
2023/07/01 02:20:16;;;;;;;3.80;1.05;;;17.70;99.90;;;;;;5027699;28;20486;-73
2023/07/01 02:22:42;;;;;;;6.28;1.60;;;17.70;99.90;;;;;;5028222;28;20045;-73
2023/07/01 02:25:07;;;;;;;10.80;1.58;;;17.70;99.90;;;;;;5011301;28;20132;-73
2023/07/01 02:27:33;;;;;;;9.45;1.30;;;17.70;99.90;;;;;;5009431;28;20490;-76
2023/07/01 02:29:59;;;;;;;4.63;1.20;;;17.70;99.90;;;;;;5027514;28;20389;-72
2023/07/01 02:32:25;;;;;;;8.23;2.15;;;17.70;99.90;;;;;;5010790;28;20033;-72
2023/07/01 02:34:51;;;;;;;5.45;1.42;;;17.70;99.90;;;;;;5010936;28;20036;-72
2023/07/01 02:37:17;;;;;;;2.90;1.02;;;17.60;99.90;;;;;;5011011;28;20049;-73
2023/07/01 02:39:45;;;;;;;3.28;1.50;;;17.60;99.90;;;;;;5028152;28;20432;-72
2023/07/01 02:42:11;;;;;;;4.82;1.25;;;17.60;99.90;;;;;;5010022;28;20124;-72
2023/07/01 02:44:37;;;;;;;2.65;1.45;;;17.60;99.90;;;;;;5010610;28;20113;-72
2023/07/01 02:47:02;;;;;;;6.38;2.25;;;17.50;99.90;;;;;;5029673;28;20029;-72
2023/07/01 02:49:28;;;;;;;5.50;1.38;;;17.50;99.90;;;;;;5010664;28;20453;-72
2023/07/01 02:51:53;;;;;;;4.03;1.75;;;17.50;99.90;;;;;;5010627;28;20041;-72
2023/07/01 02:54:19;;;;;;;5.68;1.73;;;17.50;99.90;;;;;;5011168;28;20394;-72
2023/07/01 02:56:44;;;;;;;4.95;1.40;;;17.50;99.90;;;;;;5011215;28;20106;-72
2023/07/01 02:59:11;;;;;;;5.65;1.65;;;17.50;99.90;;;;;;5011281;28;20037;-72
2023/07/01 03:01:37;;;;;;;13.02;1.73;;;17.50;99.90;;;;;;5010727;28;20057;-72
2023/07/01 03:04:05;;;;;;;4.90;1.40;;;17.50;99.90;;;;;;5013646;28;20430;-72
2023/07/01 03:06:31;;;;;;;4.53;1.33;;;17.40;99.90;;;;;;5009729;28;21048;-72
2023/07/01 03:08:56;;;;;;;3.78;1.17;;;17.50;99.90;;;;;;5009706;28;20030;-72
2023/07/01 03:11:22;;;;;;;2.60;1.40;;;17.50;99.90;;;;;;5027899;28;20411;-72
2023/07/01 03:13:48;;;;;;;2.28;1.15;;;17.50;99.90;;;;;;5010639;28;20034;-72
2023/07/01 03:16:13;;;;;;;5.25;1.20;;;17.50;99.90;;;;;;5028133;28;20412;-73
2023/07/01 03:18:39;;;;;;;5.15;1.10;;;17.50;99.90;;;;;;5009338;28;20187;-74
2023/07/01 03:21:04;;;;;;;3.38;1.13;;;17.50;99.90;;;;;;5028484;28;20500;-73
2023/07/01 03:23:30;;;;;;;3.72;1.20;;;17.50;99.90;;;;;;5027691;28;20036;-73
2023/07/01 03:25:56;;;;;;;4.15;1.48;;;17.50;99.90;;;;;;5009451;28;20040;-72
2023/07/01 03:28:22;;;;;;;4.40;1.05;;;17.50;99.90;;;;;;5027073;28;20048;-72
2023/07/01 03:30:48;;;;;;;2.85;1.20;;;17.50;99.90;;;;;;5027011;28;20038;-72
2023/07/01 03:33:15;;;;;;;1.85;0.95;;;17.50;99.90;;;;;;5008975;28;20416;-71
2023/07/01 03:35:41;;;;;;;1.50;1.10;;;17.50;99.90;;;;;;5026919;28;20529;-72
2023/07/01 03:38:07;;;;;;;3.28;1.38;;;17.50;99.90;;;;;;5009659;28;20056;-72
2023/07/01 03:40:32;;;;;;;8.15;1.50;;;17.50;99.90;;;;;;5026594;28;20026;-73
2023/07/01 03:42:58;;;;;;;3.65;1.52;;;17.60;99.90;;;;;;5008913;28;20514;-73
2023/07/01 03:45:23;;;;;;;3.92;1.35;;;17.50;99.90;;;;;;5009000;28;20041;-72
2023/07/01 03:47:49;;;;;;;4.03;1.90;;;17.50;99.90;;;;;;5009099;28;20033;-71
2023/07/01 03:50:15;;;;;;;4.00;1.67;;;17.50;99.90;;;;;;5026538;28;20040;-72
2023/07/01 03:52:42;;;;;;;10.93;2.90;;;17.50;99.90;;;;;;5009565;28;20041;-71
2023/07/01 03:55:11;;;;;;;3.55;1.88;;;17.40;99.90;;;;;;5013843;28;20037;-72
2023/07/01 03:57:37;;;;;;;3.25;1.67;;;17.40;99.90;;;;;;5013068;28;20033;-71
2023/07/01 04:00:08;;;;;;;3.83;1.58;;;17.40;99.90;;;;;;5031141;28;20053;-72
2023/07/01 04:02:38;;;;;;;5.03;1.98;;;17.40;99.90;;;;;;5011889;28;20037;-73
2023/07/01 04:05:10;;;;;;;5.00;1.88;;;17.40;99.90;;;;;;5016826;28;20033;-72
2023/07/01 04:07:37;;;;;;;5.45;1.70;;;17.30;99.90;;;;;;5012532;28;20044;-74
2023/07/01 04:10:05;;;;;;;5.55;1.92;;;17.20;99.90;;;;;;5013283;28;20386;-72
2023/07/01 04:12:32;;;;;;;3.45;2.10;;;17.20;99.90;;;;;;5012844;28;20034;-72
2023/07/01 04:14:58;;;;;;;6.13;2.10;;;17.20;99.90;;;;;;5011847;28;20026;-72
2023/07/01 04:17:24;;;;;;;6.47;2.47;;;17.20;99.90;;;;;;5012702;28;20041;-73
2023/07/01 04:19:49;;;;;;;5.82;2.65;;;17.10;99.90;;;;;;5012645;28;20457;-72
2023/07/01 04:22:15;;;;;;;4.68;2.47;;;17.10;99.90;;;;;;5012463;28;20037;-72
2023/07/01 04:24:40;;;;;;;3.50;2.25;;;17.10;99.90;;;;;;5012026;28;20041;-72
2023/07/01 04:27:06;;;;;;;5.45;2.30;;;17.00;99.90;;;;;;5013194;28;20034;-71
2023/07/01 04:29:31;;;;;;;4.20;2.42;;;17.00;99.90;;;;;;5012230;28;20057;-73
2023/07/01 04:31:57;;;;;;;4.93;2.90;;;16.90;99.90;;;;;;5029982;28;20513;-73
2023/07/01 04:34:22;;;;;;;5.68;3.28;;;16.90;99.90;;;;;;5030071;28;20382;-73
2023/07/01 04:36:48;;;;;;;13.20;3.78;;;16.80;99.90;;;;;;5012524;28;20112;-71
2023/07/01 04:39:14;;;;;;;5.75;2.60;;;16.80;99.90;;;;;;5012331;28;20034;-72
2023/07/01 04:41:40;;;;;;;4.72;2.88;;;16.80;99.90;;;;;;5012273;28;20107;-74
2023/07/01 04:44:05;;;;;;;8.00;2.92;;;16.80;99.90;;;;;;5030407;28;20044;-73
2023/07/01 04:46:32;;;;;;;6.38;2.80;;;16.70;99.90;;;;;;5011893;28;20457;-74
2023/07/01 04:48:59;;;;;;;6.75;3.08;;;16.70;99.90;;;;;;5029912;28;20456;-72
2023/07/01 04:51:25;;;;;;;6.07;3.20;;;16.70;99.90;;;;;;5011833;28;20485;-72
2023/07/01 04:53:51;;;;;;;4.68;2.65;;;16.70;99.90;;;;;;5011997;28;20036;-71
2023/07/01 04:56:16;;;;;;;4.60;2.63;;;16.70;99.90;;;;;;5012127;28;20025;-73
2023/07/01 04:58:42;;;;;;;7.53;2.70;;;16.80;99.90;;;;;;5011806;28;20533;-73
2023/07/01 05:01:08;;;;;;;5.63;2.67;;;16.80;99.90;;;;;;5012105;28;20125;-72
2023/07/01 05:03:33;;;;;;;4.05;2.65;;;16.80;99.90;;;;;;5012479;28;20029;-73
2023/07/01 05:05:59;;;;;;;7.68;2.75;;;16.80;99.90;;;;;;5012827;28;20048;-72
2023/07/01 05:08:24;;;;;;;3.47;2.55;;;16.80;99.90;;;;;;5011596;28;20029;-73
2023/07/01 05:10:50;;;;;;;5.72;2.55;;;16.80;99.90;;;;;;5011407;28;20045;-72
2023/07/01 05:13:15;;;;;;;3.97;2.17;;;16.90;99.90;;;;;;5015047;28;20116;-72
2023/07/01 05:15:41;;;;;;;12.02;2.65;;;17.00;99.90;;;;;;5011265;28;20650;-73
2023/07/01 05:18:07;;;;;;;4.13;2.88;;;17.00;99.90;;;;;;5012120;28;20124;-73
2023/07/01 05:20:33;;;;;;;4.22;2.72;;;17.00;99.90;;;;;;5011450;28;20094;-72
2023/07/01 05:22:58;;;;;;;5.53;2.42;;;17.00;99.90;;;;;;5011351;28;20041;-72
2023/07/01 05:25:24;;;;;;;3.28;2.47;;;17.10;99.90;;;;;;5029213;28;20064;-71
2023/07/01 05:27:49;;;;;;;5.85;2.75;;;17.10;99.90;;;;;;5011138;28;20482;-72
2023/07/01 05:30:15;;;;;;;3.30;2.28;;;17.20;99.90;;;;;;5029026;28;20382;-72
2023/07/01 05:32:40;;;;;;;4.18;2.70;;;17.20;99.90;;;;;;5011087;28;20037;-72
2023/07/01 05:35:06;;;;;;;5.38;2.65;;;17.20;99.90;;;;;;5029298;28;20033;-73
2023/07/01 05:37:32;;;;;;;3.55;2.40;;;17.20;99.90;;;;;;5029396;28;20045;-72
2023/07/01 05:39:57;;;;;;;5.25;2.80;;;17.20;99.90;;;;;;5028958;28;20047;-72
2023/07/01 05:42:23;;;;;;;4.70;2.55;;;17.20;99.90;;;;;;5010508;28;20033;-71
2023/07/01 05:44:48;;;;;;;9.05;2.50;;;17.20;99.90;;;;;;5028836;28;20132;-72
2023/07/01 05:47:14;;;;;;;5.03;2.67;;;17.20;99.90;;;;;;5011099;28;20520;-72
2023/07/01 05:49:40;;;;;;;6.25;3.75;;;17.20;99.90;;;;;;5010969;28;20041;-74
2023/07/01 05:52:05;;;;;;;9.27;3.30;;;17.20;99.90;;;;;;5028870;28;20065;-73
2023/07/01 05:54:31;;;;;;;3.85;2.63;;;17.10;99.90;;;;;;5029112;28;21541;-73
2023/07/01 05:56:57;;;;;;;6.05;2.80;;;17.10;99.90;;;;;;5029150;28;20033;-73
2023/07/01 05:59:22;;;;;;;6.25;3.08;;;17.10;99.90;;;;;;5028554;28;20045;-73
2023/07/01 06:01:48;;;;;;;6.35;3.25;;;17.00;99.90;;;;;;5028143;28;20041;-72
2023/07/01 06:04:14;;;;;;;3.83;2.80;;;17.00;99.90;;;;;;5017288;28;20037;-73
2023/07/01 06:06:39;;;;;;;3.92;2.85;;;17.00;99.90;;;;;;5014428;28;20041;-73
2023/07/01 06:09:08;;;;;;;3.67;2.63;;;17.00;99.90;;;;;;5010986;28;20401;-72
2023/07/01 06:11:34;;;;;;;7.30;3.08;;;17.00;99.90;;;;;;5028206;28;20397;-73
2023/07/01 06:13:59;;;;;;;3.45;2.40;;;17.00;99.90;;;;;;5013983;28;20025;-73
2023/07/01 06:16:25;;;;;;;3.30;2.50;;;17.00;99.90;;;;;;5011261;28;20045;-73
2023/07/01 06:18:50;;;;;;;3.55;2.35;;;17.10;99.90;;;;;;5028726;28;20570;-73
2023/07/01 06:21:16;;;;;;;5.82;2.47;;;17.00;99.90;;;;;;5028655;28;20060;-72
2023/07/01 06:23:41;;;;;;;5.07;3.17;;;17.00;99.90;;;;;;5028477;28;20128;-72
2023/07/01 06:26:07;;;;;;;7.40;2.92;;;17.00;99.90;;;;;;5010823;28;20060;-72
2023/07/01 06:28:33;;;;;;;4.45;3.05;;;17.00;99.90;;;;;;5028318;28;20037;-74
2023/07/01 06:30:58;;;;;;;5.50;2.88;;;17.00;99.90;;;;;;5010501;28;20959;-73
2023/07/01 06:33:24;;;;;;;5.60;2.55;;;17.00;99.90;;;;;;5010168;28;20033;-73
2023/07/01 06:35:49;;;;;;;5.55;3.08;;;17.10;99.90;;;;;;5009934;28;20042;-72
2023/07/01 06:38:15;;;;;;;3.75;2.63;;;17.00;99.90;;;;;;5009828;28;20041;-73
2023/07/01 06:40:41;;;;;;;4.60;2.92;;;17.10;99.90;;;;;;5027880;28;20041;-72
2023/07/01 06:43:06;;;;;;;3.67;2.75;;;17.00;99.90;;;;;;5010261;28;20064;-72
2023/07/01 06:45:32;;;;;;;4.03;2.97;;;17.10;99.90;;;;;;5010056;28;20536;-73
2023/07/01 06:47:58;;;;;;;5.50;3.17;;;17.10;99.90;;;;;;5010044;28;20095;-72
2023/07/01 06:50:24;;;;;;;3.30;2.53;;;17.10;99.90;;;;;;5009759;28;20091;-73
2023/07/01 06:52:50;;;;;;;5.50;2.95;;;17.10;99.90;;;;;;5009769;28;20037;-73
2023/07/01 06:55:15;;;;;;;4.13;2.50;;;17.10;99.90;;;;;;5009461;28;20490;-73
2023/07/01 06:57:44;;;;;;;5.65;3.35;;;17.20;99.90;;;;;;5006363;28;20057;-74
2023/07/01 07:00:12;;;;;;;3.72;2.60;;;17.20;99.90;;;;;;5024337;28;20062;-73
2023/07/01 07:02:38;;;;;;;3.58;2.70;;;17.20;99.90;;;;;;5009311;28;20587;-72
2023/07/01 07:05:05;;;;;;;3.97;2.70;;;17.20;99.90;;;;;;5020502;28;20108;-72
2023/07/01 07:07:31;;;;;;;4.68;2.80;;;17.30;99.90;;;;;;5027632;28;21451;-73
2023/07/01 07:09:57;;;;;;;5.45;2.63;;;17.30;99.90;;;;;;5009367;28;20041;-72
2023/07/01 07:12:22;;;;;;;4.25;3.00;;;17.30;99.90;;;;;;5009440;28;20685;-74
2023/07/01 07:14:48;;;;;;;4.00;2.47;;;17.30;99.90;;;;;;5020605;28;20037;-73
2023/07/01 07:17:14;;;;;;;3.85;2.47;;;17.30;99.90;;;;;;5027349;28;20044;-73
2023/07/01 07:19:39;;;;;;;4.32;3.10;;;17.30;99.90;;;;;;5009172;28;20124;-73
2023/07/01 07:22:05;;;;;;;4.45;2.40;;;17.30;99.90;;;;;;5028014;28;20037;-73
2023/07/01 07:24:31;;;;;;;4.82;2.75;;;17.30;99.90;;;;;;5009622;28;20472;-73
2023/07/01 07:27:00;;;;;;;6.45;2.70;;;17.40;99.90;;;;;;5009112;28;20045;-73
2023/07/01 07:29:26;;;;;;;3.92;2.60;;;17.40;99.90;;;;;;5009223;28;20033;-72
2023/07/01 07:31:51;;;;;;;2.53;1.85;;;17.50;99.90;;;;;;5026934;28;20045;-74
2023/07/01 07:34:17;;;;;;;3.85;2.60;;;17.50;99.90;;;;;;5027133;28;20087;-74
2023/07/01 07:36:43;;;;;;;3.20;2.20;;;17.50;99.90;;;;;;5026821;28;20107;-73
2023/07/01 07:39:12;;;;;;;5.80;3.10;;;17.60;99.90;;;;;;5027478;28;20037;-73
2023/07/01 07:41:39;;;;;;;3.30;2.35;;;17.70;99.90;;;;;;5011073;28;20029;-74
2023/07/01 07:44:04;;;;;;;4.65;2.53;;;17.60;99.90;;;;;;5005024;28;20029;-74
2023/07/01 07:46:30;;;;;;;3.65;2.15;;;17.70;99.90;;;;;;5026899;28;20038;-73
2023/07/01 07:48:55;;;;;;;3.55;1.90;;;17.70;99.90;;;;;;5009147;28;20026;-72
2023/07/01 07:51:21;;;;;;;3.08;2.25;;;17.80;99.90;;;;;;5009089;28;20168;-73
2023/07/01 07:53:47;;;;;;;2.60;1.50;;;17.70;99.90;;;;;;5008565;28;20036;-72
2023/07/01 07:56:12;;;;;;;2.78;1.90;;;17.70;99.90;;;;;;5009409;28;20041;-75
2023/07/01 07:58:38;;;;;;;3.28;1.85;;;17.70;99.90;;;;;;5008865;28;20084;-74
2023/07/01 08:01:04;;;;;;;2.90;1.80;;;17.80;99.90;;;;;;5027529;28;20033;-74
2023/07/01 08:03:29;;;;;;;2.65;1.40;;;17.80;99.90;;;;;;5027027;28;20022;-72
2023/07/01 08:05:55;;;;;;;2.40;1.70;;;17.80;99.90;;;;;;5027806;28;20033;-73
2023/07/01 08:08:21;;;;;;;3.45;1.65;;;17.80;99.90;;;;;;5026644;28;20033;-72
2023/07/01 08:10:47;;;;;;;3.88;1.80;;;17.80;99.90;;;;;;5008835;28;20034;-73
2023/07/01 08:13:13;;;;;;;4.90;1.75;;;17.80;99.90;;;;;;5026002;28;20121;-74
2023/07/01 08:15:40;;;;;;;1.38;1.15;;;17.80;99.90;;;;;;5008918;28;20087;-72
2023/07/01 08:18:06;;;;;;;2.33;1.60;;;17.80;99.90;;;;;;5008942;28;20136;-72
2023/07/01 08:20:31;;;;;;;2.03;1.45;;;17.80;99.90;;;;;;5026254;28;20251;-74
2023/07/01 08:22:57;;;;;;;1.58;1.20;;;17.80;99.90;;;;;;5025897;28;20100;-72
2023/07/01 08:25:22;;;;;;;2.75;1.23;;;17.90;99.90;;;;;;5026560;28;20030;-73
2023/07/01 08:27:48;;;;;;;2.58;1.30;;;17.90;99.90;;;;;;5008682;28;20383;-73
2023/07/01 08:30:14;;;;;;;2.72;1.10;;;18.00;99.90;;;;;;5008523;28;20073;-72
2023/07/01 08:32:41;;;;;;;1.75;1.10;;;18.00;99.90;;;;;;5008497;28;20430;-72
2023/07/01 08:35:07;;;;;;;2.67;1.10;;;18.10;99.90;;;;;;5008923;28;20033;-73
2023/07/01 08:37:33;;;;;;;1.73;1.10;;;18.10;99.90;;;;;;5025768;28;20041;-74
2023/07/01 08:39:59;;;;;;;1.48;0.82;;;18.20;99.90;;;;;;5010064;28;20033;-71
2023/07/01 08:42:43;;;;;;;1.40;0.80;;;18.20;99.90;;;;;;5029659;28;20041;-73
2023/07/01 08:45:10;;;;;;;1.67;1.10;;;18.30;99.90;;;;;;5027529;28;20048;-72
2023/07/01 08:47:37;;;;;;;1.58;1.27;;;18.30;99.90;;;;;;5028469;28;20164;-75
2023/07/01 08:50:05;;;;;;;1.17;0.90;;;18.30;99.90;;;;;;5012608;28;20033;-74
2023/07/01 08:52:37;;;;;;;1.27;0.90;;;18.30;99.90;;;;;;5011995;28;20053;-71
2023/07/01 08:55:04;;;;;;;2.50;1.00;;;18.30;99.90;;;;;;5026477;28;20499;-73
2023/07/01 08:57:30;;;;;;;1.77;1.08;;;18.20;99.90;;;;;;5011862;28;20098;-72
2023/07/01 08:59:55;;;;;;;2.50;1.33;;;18.20;99.90;;;;;;5026660;28;20038;-74
2023/07/01 09:02:24;;;;;;;1.38;0.90;;;18.20;99.90;;;;;;5010730;28;20033;-73
2023/07/01 09:04:50;;;;;;;2.65;0.95;;;18.20;99.90;;;;;;5034305;28;20037;-73
2023/07/01 09:07:15;;;;;;;2.40;1.10;;;18.30;99.90;;;;;;5011699;28;20485;-74
2023/07/01 09:09:41;;;;;;;2.50;1.67;;;18.30;99.90;;;;;;5029267;28;20038;-73
2023/07/01 09:12:07;;;;;;;2.47;1.27;;;18.30;99.90;;;;;;5011942;28;20044;-73
2023/07/01 09:14:55;;;;;;;2.17;1.40;;;18.40;99.90;;;;;;5031060;28;20049;-73
2023/07/01 09:17:38;;;;;;;3.40;1.60;;;18.50;99.90;;;;;;4996936;28;20485;-73
2023/07/01 09:20:06;;;;;;;3.75;1.60;;;18.50;99.90;;;;;;5008855;28;20100;-73
2023/07/01 09:22:34;;;;;;;2.15;1.50;;;18.50;99.90;;;;;;5011431;28;20069;-72
2023/07/01 09:25:00;;;;;;;2.05;1.52;;;18.60;99.90;;;;;;5025312;28;20029;-72
2023/07/01 09:27:42;;;;;;;1.98;1.58;;;18.50;99.90;;;;;;5011447;28;20668;-73
2023/07/01 09:30:28;;;;;;;2.67;1.40;;;18.50;99.90;;;;;;5026439;28;20447;-72
2023/07/01 09:33:11;;;;;;;3.33;1.85;;;18.50;99.90;;;;;;5010831;28;20042;-73
2023/07/01 09:35:44;;;;;;;2.60;1.48;;;18.40;99.90;;;;;;5007379;28;20037;-74
2023/07/01 09:38:10;;;;;;;2.28;1.63;;;18.40;99.90;;;;;;5011562;28;20180;-75
2023/07/01 09:40:35;;;;;;;2.55;1.58;;;18.40;99.90;;;;;;5027695;28;20049;-73
2023/07/01 09:43:01;;;;;;;1.95;1.20;;;18.50;99.90;;;;;;5011275;28;20065;-73
2023/07/01 09:45:26;;;;;;;2.00;1.30;;;18.60;99.90;;;;;;5010656;28;20034;-74
2023/07/01 09:47:52;;;;;;;1.75;1.30;;;18.60;99.90;;;;;;5027853;28;20061;-73
2023/07/01 09:50:29;;;;;;;1.20;0.90;;;18.60;99.90;;;;;;5010261;28;20586;-74
2023/07/01 09:52:55;;;;;;;2.08;0.90;;;18.60;99.90;;;;;;5010614;28;20128;-74
2023/07/01 09:55:22;;;;;;;1.13;0.70;;;18.60;99.90;;;;;;5028506;28;20033;-73
2023/07/01 09:57:48;;;;;;;0.80;0.68;;;18.70;99.90;;;;;;5010347;28;20064;-72
2023/07/01 10:00:15;;;;;;;1.38;0.70;;;18.70;99.90;;;;;;5010342;28;20486;-70
2023/07/01 10:02:43;;;;;;;1.50;0.70;;;18.70;99.90;;;;;;5028188;28;20072;-75
2023/07/01 10:05:09;;;;;;;1.10;0.70;;;18.70;99.90;;;;;;5011613;28;20040;-75
2023/07/01 10:07:35;;;;;;;2.90;1.15;;;18.80;99.90;;;;;;5028128;28;20038;-75
2023/07/01 10:10:01;;;;;;;1.85;1.02;;;18.80;99.90;;;;;;5010587;28;20040;-72
2023/07/01 10:12:27;;;;;;;2.15;1.10;;;18.80;99.90;;;;;;5010196;28;20410;-72
2023/07/01 10:14:54;;;;;;;2.38;1.25;;;19.00;99.90;;;;;;5015325;28;20520;-75
2023/07/01 10:17:20;;;;;;;3.17;1.20;;;19.10;99.90;;;;;;5010033;28;20072;-73
2023/07/01 10:19:49;;;;;;;2.63;1.20;;;19.20;99.90;;;;;;5010135;28;20568;-76
2023/07/01 10:22:26;;;;;;;2.00;1.23;;;19.40;99.90;;;;;;5009923;28;20029;-75
2023/07/01 10:25:07;;;;;;;1.30;0.90;;;19.40;99.90;;;;;;5009838;28;20052;-72
2023/07/01 10:27:42;;;;;;;1.73;0.75;;;19.30;99.90;;;;;;5025329;28;20235;-73
2023/07/01 10:30:11;;;;;;;1.83;0.93;;;19.20;99.90;;;;;;5010510;28;20144;-73
2023/07/01 10:32:37;;;;;;;4.55;1.55;;;19.10;99.90;;;;;;5009563;28;20482;-75
2023/07/01 10:35:05;;;;;;;3.10;1.52;;;19.20;99.90;;;;;;5010213;28;20092;-73
2023/07/01 10:37:34;;;;;;;4.30;1.77;;;19.20;99.90;;;;;;5009571;28;20095;-72
2023/07/01 10:40:21;;;;;;;4.63;1.70;;;19.30;99.90;;;;;;5027969;28;20041;-73
2023/07/01 10:42:47;;;;;;;4.68;1.67;;;19.30;99.90;;;;;;4992127;28;20513;-75
2023/07/01 10:45:12;;;;;;;4.07;1.67;;;19.30;99.90;;;;;;5010251;28;20042;-72
2023/07/01 10:47:46;;;;;;;4.25;2.10;;;19.20;99.90;;;;;;5027381;28;20033;-74
2023/07/01 10:50:14;;;;;;;4.22;1.88;;;19.20;99.90;;;;;;5027770;28;20040;-74
2023/07/01 10:55:46;;;;;;;4.30;2.60;;;19.30;99.90;;;;;;5023432;28;20040;-74
2023/07/01 10:58:18;;;;;;;5.93;2.58;;;19.50;99.90;;;;;;5008569;28;20048;-73
2023/07/01 11:00:45;;;;;;;6.55;2.30;;;19.60;99.90;;;;;;5009119;28;20033;-73
2023/07/01 11:03:33;;;;;;;4.13;2.28;;;19.70;99.90;;;;;;5027015;28;20391;-74
2023/07/01 11:06:04;;;;;;;2.90;1.50;;;19.60;99.90;;;;;;5011717;28;20033;-73
2023/07/01 11:08:31;;;;;;;3.85;1.50;;;19.50;99.90;;;;;;5027237;28;20033;-72
2023/07/01 11:10:57;;;;;;;3.05;1.20;;;19.40;99.90;;;;;;5026691;28;20036;-75
2023/07/01 11:13:24;;;;;;;3.45;1.60;;;19.40;99.90;;;;;;5009790;28;20028;-74
2023/07/01 11:16:10;;;;;;;2.17;1.25;;;19.50;99.90;;;;;;5027040;28;20057;-72
2023/07/01 11:18:46;;;;;;;4.70;1.50;;;19.60;99.90;;;;;;5024112;28;20039;-73
2023/07/01 11:21:13;;;;;;;2.22;1.67;;;19.60;99.90;;;;;;5009669;28;20527;-74
2023/07/01 11:23:50;;;;;;;3.83;1.50;;;19.60;99.90;;;;;;5009262;28;20038;-73
2023/07/01 11:26:20;;;;;;;3.55;1.40;;;19.60;99.90;;;;;;5009598;28;20037;-72
2023/07/01 11:28:46;;;;;;;3.42;1.60;;;19.50;99.90;;;;;;5026778;28;20037;-73
2023/07/01 11:31:16;;;;;;;6.00;1.80;;;19.40;99.90;;;;;;5009407;28;20041;-75
2023/07/01 11:34:07;;;;;;;2.80;1.42;;;19.30;99.90;;;;;;5008578;28;20037;-73
2023/07/01 11:36:40;;;;;;;5.93;1.70;;;19.40;99.90;;;;;;5021320;28;20409;-73
2023/07/01 11:39:09;;;;;;;5.95;2.35;;;19.50;99.90;;;;;;5009105;28;20048;-72
2023/07/01 11:41:36;;;;;;;4.05;2.03;;;19.60;99.90;;;;;;5009128;28;20030;-74
2023/07/01 11:44:03;;;;;;;7.60;2.30;;;19.60;99.90;;;;;;5009336;28;20030;-72
2023/07/01 11:46:40;;;;;;;3.63;1.60;;;19.80;99.90;;;;;;5009138;28;20021;-74
2023/07/01 11:49:22;;;;;;;2.78;1.73;;;20.10;99.90;;;;;;5010196;28;20052;-72
2023/07/01 11:52:02;;;;;;;3.42;1.73;;;20.40;99.90;;;;;;5026066;28;20056;-70
2023/07/01 11:54:39;;;;;;;3.97;1.60;;;20.50;99.90;;;;;;5005950;28;20026;-74
2023/07/01 11:57:08;;;;;;;3.95;1.33;;;20.60;99.90;;;;;;5027388;28;20104;-74
2023/07/01 11:59:35;;;;;;;3.37;1.40;;;20.50;99.90;;;;;;5027043;28;20037;-74
2023/07/01 12:02:01;;;;;;;5.47;2.00;;;20.50;99.90;;;;;;5009421;28;20061;-73
2023/07/01 12:04:30;;;;;;;4.28;2.22;;;20.30;99.90;;;;;;5013137;28;20029;-74
2023/07/01 12:07:13;;;;;;;6.22;1.98;;;20.10;99.90;;;;;;5026695;28;20045;-73
2023/07/01 12:09:43;;;;;;;4.45;1.45;;;19.80;99.90;;;;;;5008538;28;20041;-71
2023/07/01 12:12:31;;;;;;;2.00;1.30;;;19.60;99.90;;;;;;5026916;28;20119;-72
2023/07/01 12:15:05;;;;;;;4.60;1.80;;;19.50;99.90;;;;;;5015626;28;20052;-72
2023/07/01 12:17:31;;;;;;;12.68;2.28;;;19.30;99.90;;;;;;5012794;28;20489;-73
2023/07/01 12:20:00;;;;;;;4.40;2.15;;;19.30;99.90;;;;;;5031349;28;20026;-73
2023/07/01 12:22:27;;;;;;;6.95;2.28;;;19.40;99.90;;;;;;5031005;28;20033;-73
2023/07/01 12:24:55;;;;;;;7.72;1.70;;;19.50;99.90;;;;;;5030291;28;20026;-73
2023/07/01 12:27:20;;;;;;;4.35;1.67;;;19.60;99.90;;;;;;5012622;28;20044;-73
2023/07/01 12:29:46;;;;;;;4.80;1.83;;;19.60;99.90;;;;;;5030319;28;20030;-74
2023/07/01 12:32:11;;;;;;;4.78;1.48;;;19.70;99.90;;;;;;5030255;28;20037;-72
2023/07/01 12:34:37;;;;;;;2.83;1.65;;;19.80;99.90;;;;;;5030145;28;20034;-74
2023/07/01 12:37:03;;;;;;;4.43;2.25;;;20.00;99.90;;;;;;5013049;28;20132;-74
2023/07/01 12:39:31;;;;;;;3.75;2.30;;;20.30;99.90;;;;;;5012600;28;20377;-74
2023/07/01 12:41:58;;;;;;;7.35;2.05;;;20.60;99.90;;;;;;5029839;28;20167;-73
2023/07/01 12:44:24;;;;;;;5.97;1.98;;;20.70;99.90;;;;;;5013373;28;20021;-74
2023/07/01 12:46:50;;;;;;;4.97;1.95;;;20.70;99.90;;;;;;5013725;28;20037;-74
2023/07/01 12:49:16;;;;;;;3.72;2.08;;;20.70;99.90;;;;;;5013958;28;20036;-75
2023/07/01 12:51:43;;;;;;;5.22;1.65;;;20.90;99.90;;;;;;5030885;28;20061;-73